sensor_id;sensor_type;location;lat;lon;timestamp;pressure;altitude;pressure_sealevel;temperature;humidity
31357;BME280;60001;48.404;11.738;2023-08-21T00:01:31;96791.97;;;23.93;64.10
31357;BME280;60001;48.404;11.738;2023-08-21T00:03:01;96791.06;;;23.81;64.86
31357;BME280;60001;48.404;11.738;2023-08-21T00:04:33;96796.47;;;23.81;64.63
31357;BME280;60001;48.404;11.738;2023-08-21T00:06:04;96788.72;;;23.79;64.29
31357;BME280;60001;48.404;11.738;2023-08-21T00:07:35;96796.78;;;23.79;64.88
31357;BME280;60001;48.404;11.738;2023-08-21T00:09:06;96791.91;;;23.72;65.19
31357;BME280;60001;48.404;11.738;2023-08-21T00:10:38;96786.91;;;23.83;64.80
31357;BME280;60001;48.404;11.738;2023-08-21T00:12:09;96789.16;;;23.81;64.82
31357;BME280;60001;48.404;11.738;2023-08-21T00:13:42;96789.22;;;23.72;64.69
31357;BME280;60001;48.404;11.738;2023-08-21T00:15:15;96792.59;;;23.61;65.53
31357;BME280;60001;48.404;11.738;2023-08-21T00:16:47;96787.31;;;23.73;65.15
31357;BME280;60001;48.404;11.738;2023-08-21T00:18:19;96789.22;;;23.72;65.21
31357;BME280;60001;48.404;11.738;2023-08-21T00:19:49;96784.94;;;23.63;65.71
31357;BME280;60001;48.404;11.738;2023-08-21T00:21:21;96788.91;;;23.57;65.85
31357;BME280;60001;48.404;11.738;2023-08-21T00:22:52;96789.59;;;23.45;66.38
31357;BME280;60001;48.404;11.738;2023-08-21T00:24:24;96789.72;;;23.48;66.27
31357;BME280;60001;48.404;11.738;2023-08-21T00:25:54;96786.59;;;23.46;66.39
31357;BME280;60001;48.404;11.738;2023-08-21T00:27:26;96800.38;;;23.45;66.39
31357;BME280;60001;48.404;11.738;2023-08-21T00:28:58;96794.88;;;23.33;67.21
31357;BME280;60001;48.404;11.738;2023-08-21T00:30:30;96783.78;;;23.25;66.94
31357;BME280;60001;48.404;11.738;2023-08-21T00:32:01;96786.16;;;23.27;67.42
31357;BME280;60001;48.404;11.738;2023-08-21T00:33:33;96782.19;;;23.33;67.10
31357;BME280;60001;48.404;11.738;2023-08-21T00:35:04;96781.84;;;23.35;67.29
31357;BME280;60001;48.404;11.738;2023-08-21T00:36:36;96781.53;;;23.36;66.98
31357;BME280;60001;48.404;11.738;2023-08-21T00:38:07;96783.44;;;23.36;67.41
31357;BME280;60001;48.404;11.738;2023-08-21T00:39:38;96776.91;;;23.45;66.70
31357;BME280;60001;48.404;11.738;2023-08-21T00:41:10;96775.28;;;23.62;65.98
31357;BME280;60001;48.404;11.738;2023-08-21T00:42:41;96781.75;;;23.69;65.72
31357;BME280;60001;48.404;11.738;2023-08-21T00:44:14;96776.53;;;23.73;65.62
31357;BME280;60001;48.404;11.738;2023-08-21T00:45:49;96776.19;;;23.74;65.14
31357;BME280;60001;48.404;11.738;2023-08-21T00:47:21;96778.03;;;23.83;64.78
31357;BME280;60001;48.404;11.738;2023-08-21T00:48:52;96775.41;;;23.74;65.20
31357;BME280;60001;48.404;11.738;2023-08-21T00:50:24;96784.44;;;23.69;65.54
31357;BME280;60001;48.404;11.738;2023-08-21T00:51:56;96779.22;;;23.73;65.15
31357;BME280;60001;48.404;11.738;2023-08-21T00:53:28;96786.22;;;23.65;65.23
31357;BME280;60001;48.404;11.738;2023-08-21T00:54:58;96782.59;;;23.61;65.38
31357;BME280;60001;48.404;11.738;2023-08-21T00:56:31;96781.63;;;23.66;65.26
31357;BME280;60001;48.404;11.738;2023-08-21T00:58:04;96781.47;;;23.62;65.23
31357;BME280;60001;48.404;11.738;2023-08-21T00:59:37;96784.00;;;23.59;65.35
31357;BME280;60001;48.404;11.738;2023-08-21T01:01:08;96783.84;;;23.55;65.39
31357;BME280;60001;48.404;11.738;2023-08-21T01:02:40;96775.63;;;23.43;65.44
31357;BME280;60001;48.404;11.738;2023-08-21T01:04:11;96777.09;;;23.40;65.96
31357;BME280;60001;48.404;11.738;2023-08-21T01:05:43;96774.25;;;23.37;65.80
31357;BME280;60001;48.404;11.738;2023-08-21T01:07:14;96783.63;;;23.31;65.86
31357;BME280;60001;48.404;11.738;2023-08-21T01:08:55;96779.84;;;23.23;66.47
31357;BME280;60001;48.404;11.738;2023-08-21T01:10:39;96775.25;;;23.23;66.37
31357;BME280;60001;48.404;11.738;2023-08-21T01:12:23;96777.63;;;23.25;66.94
31357;BME280;60001;48.404;11.738;2023-08-21T01:14:06;96778.44;;;23.17;67.42
31357;BME280;60001;48.404;11.738;2023-08-21T01:15:43;96780.00;;;23.18;67.13
31357;BME280;60001;48.404;11.738;2023-08-21T01:17:17;96786.22;;;23.10;67.69
31357;BME280;60001;48.404;11.738;2023-08-21T01:18:51;96779.03;;;23.22;67.02
31357;BME280;60001;48.404;11.738;2023-08-21T01:20:25;96782.50;;;23.32;66.93
31357;BME280;60001;48.404;11.738;2023-08-21T01:21:58;96781.69;;;23.40;66.69
31357;BME280;60001;48.404;11.738;2023-08-21T01:23:32;96786.72;;;23.50;66.01
31357;BME280;60001;48.404;11.738;2023-08-21T01:25:04;96778.16;;;23.48;65.92
31357;BME280;60001;48.404;11.738;2023-08-21T01:26:35;96784.84;;;23.50;66.01
31357;BME280;60001;48.404;11.738;2023-08-21T01:28:07;96789.44;;;23.41;66.35
31357;BME280;60001;48.404;11.738;2023-08-21T01:29:38;96777.88;;;23.41;66.30
31357;BME280;60001;48.404;11.738;2023-08-21T01:31:15;96792.78;;;23.38;66.15
31357;BME280;60001;48.404;11.738;2023-08-21T01:32:53;96790.13;;;23.30;66.70
31357;BME280;60001;48.404;11.738;2023-08-21T01:34:30;96781.91;;;23.17;67.12
31357;BME280;60001;48.404;11.738;2023-08-21T01:36:04;96783.53;;;23.10;67.46
31357;BME280;60001;48.404;11.738;2023-08-21T01:37:35;96783.19;;;23.11;67.36
31357;BME280;60001;48.404;11.738;2023-08-21T01:39:09;96781.00;;;23.05;67.31
31357;BME280;60001;48.404;11.738;2023-08-21T01:40:41;96787.31;;;23.00;67.78
31357;BME280;60001;48.404;11.738;2023-08-21T01:42:12;96783.88;;;22.91;68.25
31357;BME280;60001;48.404;11.738;2023-08-21T01:43:44;96783.69;;;22.87;68.10
31357;BME280;60001;48.404;11.738;2023-08-21T01:45:15;96780.66;;;22.80;68.40
31357;BME280;60001;48.404;11.738;2023-08-21T01:46:47;96784.63;;;22.83;68.48
31357;BME280;60001;48.404;11.738;2023-08-21T01:48:18;96780.22;;;22.87;68.94
31357;BME280;60001;48.404;11.738;2023-08-21T01:49:49;96779.44;;;22.95;68.14
31357;BME280;60001;48.404;11.738;2023-08-21T01:51:22;96777.34;;;23.01;67.99
31357;BME280;60001;48.404;11.738;2023-08-21T01:52:54;96777.19;;;22.97;68.14
31357;BME280;60001;48.404;11.738;2023-08-21T01:54:26;96780.03;;;23.01;67.63
31357;BME280;60001;48.404;11.738;2023-08-21T01:55:58;96783.50;;;23.01;67.19
31357;BME280;60001;48.404;11.738;2023-08-21T01:57:28;96772.28;;;22.99;67.65
31357;BME280;60001;48.404;11.738;2023-08-21T01:59:00;96780.81;;;23.01;67.59
31357;BME280;60001;48.404;11.738;2023-08-21T02:00:32;96776.09;;;22.98;68.05
31357;BME280;60001;48.404;11.738;2023-08-21T02:02:02;96772.59;;;22.97;67.61
31357;BME280;60001;48.404;11.738;2023-08-21T02:03:34;96770.88;;;22.93;67.93
31357;BME280;60001;48.404;11.738;2023-08-21T02:05:06;96779.91;;;22.88;68.45
31357;BME280;60001;48.404;11.738;2023-08-21T02:06:38;96771.97;;;22.83;68.22
31357;BME280;60001;48.404;11.738;2023-08-21T02:08:12;96770.69;;;22.81;68.75
31357;BME280;60001;48.404;11.738;2023-08-21T02:09:45;96767.53;;;22.96;67.90
31357;BME280;60001;48.404;11.738;2023-08-21T02:11:16;96778.75;;;23.07;67.33
31357;BME280;60001;48.404;11.738;2023-08-21T02:12:49;96777.84;;;23.03;67.45
31357;BME280;60001;48.404;11.738;2023-08-21T02:14:20;96773.53;;;23.10;67.09
31357;BME280;60001;48.404;11.738;2023-08-21T02:15:51;96781.13;;;23.17;66.98
31357;BME280;60001;48.404;11.738;2023-08-21T02:17:25;96785.44;;;23.09;66.58
31357;BME280;60001;48.404;11.738;2023-08-21T02:18:57;96784.97;;;22.98;66.94
31357;BME280;60001;48.404;11.738;2023-08-21T02:20:28;96779.13;;;22.88;67.44
31357;BME280;60001;48.404;11.738;2023-08-21T02:22:00;96784.31;;;22.84;67.02
31357;BME280;60001;48.404;11.738;2023-08-21T02:23:30;96789.22;;;22.82;67.67
31357;BME280;60001;48.404;11.738;2023-08-21T02:25:04;96780.06;;;22.75;68.10
31357;BME280;60001;48.404;11.738;2023-08-21T02:26:35;96777.53;;;22.61;68.08
31357;BME280;60001;48.404;11.738;2023-08-21T02:28:07;96785.75;;;22.56;68.71
31357;BME280;60001;48.404;11.738;2023-08-21T02:29:39;96785.91;;;22.59;68.76
31357;BME280;60001;48.404;11.738;2023-08-21T02:31:10;96786.41;;;22.61;68.69
31357;BME280;60001;48.404;11.738;2023-08-21T02:32:41;96789.56;;;22.63;68.53
31357;BME280;60001;48.404;11.738;2023-08-21T02:34:12;96790.34;;;22.73;68.58
31357;BME280;60001;48.404;11.738;2023-08-21T02:35:44;96788.75;;;22.71;67.30
31357;BME280;60001;48.404;11.738;2023-08-21T02:37:15;96791.13;;;22.64;67.93
31357;BME280;60001;48.404;11.738;2023-08-21T02:38:46;96785.91;;;22.59;68.57
31357;BME280;60001;48.404;11.738;2023-08-21T02:40:19;96767.38;;;22.49;68.54
31357;BME280;60001;48.404;11.738;2023-08-21T02:41:50;96792.88;;;22.78;67.87
31357;BME280;60001;48.404;11.738;2023-08-21T02:43:21;96791.59;;;22.84;67.14
31357;BME280;60001;48.404;11.738;2023-08-21T02:44:53;96787.34;;;22.83;67.15
31357;BME280;60001;48.404;11.738;2023-08-21T02:46:24;96799.22;;;22.82;66.90
31357;BME280;60001;48.404;11.738;2023-08-21T02:47:55;96791.13;;;22.73;67.18
31357;BME280;60001;48.404;11.738;2023-08-21T02:49:26;96771.66;;;22.50;67.85
31357;BME280;60001;48.404;11.738;2023-08-21T02:50:58;96788.44;;;22.56;67.80
31357;BME280;60001;48.404;11.738;2023-08-21T02:52:29;96797.31;;;22.56;67.50
31357;BME280;60001;48.404;11.738;2023-08-21T02:54:00;96795.59;;;22.60;67.15
31357;BME280;60001;48.404;11.738;2023-08-21T02:55:33;96799.22;;;22.64;66.93
31357;BME280;60001;48.404;11.738;2023-08-21T02:57:05;96796.66;;;22.59;67.19
31357;BME280;60001;48.404;11.738;2023-08-21T02:58:36;96792.72;;;22.57;66.89
31357;BME280;60001;48.404;11.738;2023-08-21T03:00:08;96787.66;;;22.47;67.39
31357;BME280;60001;48.404;11.738;2023-08-21T03:01:40;96793.66;;;22.43;67.66
31357;BME280;60001;48.404;11.738;2023-08-21T03:03:10;96800.75;;;22.31;68.01
31357;BME280;60001;48.404;11.738;2023-08-21T03:04:42;96799.19;;;22.30;68.37
31357;BME280;60001;48.404;11.738;2023-08-21T03:06:13;96794.44;;;22.35;68.26
31357;BME280;60001;48.404;11.738;2023-08-21T03:07:46;96798.91;;;22.40;68.15
31357;BME280;60001;48.404;11.738;2023-08-21T03:09:17;96802.38;;;22.40;68.03
31357;BME280;60001;48.404;11.738;2023-08-21T03:10:50;96800.47;;;22.50;67.75
31357;BME280;60001;48.404;11.738;2023-08-21T03:12:21;96800.47;;;22.50;67.04
31357;BME280;60001;48.404;11.738;2023-08-21T03:13:53;96799.38;;;22.42;67.59
31357;BME280;60001;48.404;11.738;2023-08-21T03:15:24;96799.97;;;22.39;67.69
31357;BME280;60001;48.404;11.738;2023-08-21T03:16:56;96796.81;;;22.28;68.17
31357;BME280;60001;48.404;11.738;2023-08-21T03:18:31;96794.13;;;22.37;67.63
31357;BME280;60001;48.404;11.738;2023-08-21T03:20:02;96795.41;;;22.39;67.89
31357;BME280;60001;48.404;11.738;2023-08-21T03:21:35;96791.28;;;22.42;67.26
31357;BME280;60001;48.404;11.738;2023-08-21T03:23:06;96797.00;;;22.49;67.50
31357;BME280;60001;48.404;11.738;2023-08-21T03:24:37;96796.34;;;22.43;67.15
31357;BME280;60001;48.404;11.738;2023-08-21T03:26:10;96798.56;;;22.50;66.75
31357;BME280;60001;48.404;11.738;2023-08-21T03:27:41;96792.88;;;22.34;67.20
31357;BME280;60001;48.404;11.738;2023-08-21T03:29:14;96800.28;;;22.29;67.53
31357;BME280;60001;48.404;11.738;2023-08-21T03:30:45;96794.91;;;22.29;67.32
31357;BME280;60001;48.404;11.738;2023-08-21T03:32:17;96800.94;;;22.26;67.46
31357;BME280;60001;48.404;11.738;2023-08-21T03:33:48;96795.56;;;22.26;68.24
31357;BME280;60001;48.404;11.738;2023-08-21T03:35:20;96794.91;;;22.29;67.59
31357;BME280;60001;48.404;11.738;2023-08-21T03:36:52;96802.03;;;22.25;67.93
31357;BME280;60001;48.404;11.738;2023-08-21T03:38:22;96805.81;;;22.15;67.78
31357;BME280;60001;48.404;11.738;2023-08-21T03:39:54;96802.97;;;22.11;67.90
31357;BME280;60001;48.404;11.738;2023-08-21T03:41:27;96790.22;;;21.86;68.93
31357;BME280;60001;48.404;11.738;2023-08-21T03:42:59;96805.66;;;21.72;69.50
31357;BME280;60001;48.404;11.738;2023-08-21T03:44:31;96801.72;;;21.78;69.56
31357;BME280;60001;48.404;11.738;2023-08-21T03:46:01;96793.00;;;21.72;69.64
31357;BME280;60001;48.404;11.738;2023-08-21T03:47:33;96800.63;;;21.79;69.44
31357;BME280;60001;48.404;11.738;2023-08-21T03:49:05;96803.78;;;21.81;68.86
31357;BME280;60001;48.404;11.738;2023-08-21T03:50:36;96803.03;;;21.89;68.71
31357;BME280;60001;48.404;11.738;2023-08-21T03:52:07;96802.22;;;21.88;68.71
31357;BME280;60001;48.404;11.738;2023-08-21T03:53:39;96802.03;;;21.76;69.14
31357;BME280;60001;48.404;11.738;2023-08-21T03:55:10;96808.47;;;21.67;70.16
31357;BME280;60001;48.404;11.738;2023-08-21T03:56:43;96796.31;;;21.69;69.94
31357;BME280;60001;48.404;11.738;2023-08-21T03:58:14;96797.72;;;21.67;69.72
31357;BME280;60001;48.404;11.738;2023-08-21T03:59:46;96802.00;;;21.68;69.93
31357;BME280;60001;48.404;11.738;2023-08-21T04:01:17;96801.53;;;21.66;69.96
31357;BME280;60001;48.404;11.738;2023-08-21T04:02:49;96802.00;;;21.68;70.08
31357;BME280;60001;48.404;11.738;2023-08-21T04:04:19;96807.25;;;21.73;70.04
31357;BME280;60001;48.404;11.738;2023-08-21T04:05:53;96802.66;;;21.73;70.06
31357;BME280;60001;48.404;11.738;2023-08-21T04:07:24;96808.03;;;21.73;70.06
31357;BME280;60001;48.404;11.738;2023-08-21T04:08:55;96810.75;;;21.82;69.55
31357;BME280;60001;48.404;11.738;2023-08-21T04:10:26;96807.75;;;21.83;69.02
31357;BME280;60001;48.404;11.738;2023-08-21T04:11:59;96802.63;;;21.65;69.23
31357;BME280;60001;48.404;11.738;2023-08-21T04:13:30;96810.94;;;21.54;69.68
31357;BME280;60001;48.404;11.738;2023-08-21T04:15:02;96806.81;;;21.48;70.27
31357;BME280;60001;48.404;11.738;2023-08-21T04:16:32;96808.06;;;21.42;70.33
31357;BME280;60001;48.404;11.738;2023-08-21T04:18:04;96806.63;;;21.36;71.16
31357;BME280;60001;48.404;11.738;2023-08-21T04:19:35;96806.47;;;21.41;70.94
31357;BME280;60001;48.404;11.738;2023-08-21T04:21:07;96805.84;;;21.44;71.02
31357;BME280;60001;48.404;11.738;2023-08-21T04:22:38;96809.94;;;21.42;70.81
31357;BME280;60001;48.404;11.738;2023-08-21T04:24:10;96807.25;;;21.42;70.65
31357;BME280;60001;48.404;11.738;2023-08-21T04:25:41;96815.94;;;21.39;71.01
31357;BME280;60001;48.404;11.738;2023-08-21T04:27:14;96812.78;;;21.37;71.10
31357;BME280;60001;48.404;11.738;2023-08-21T04:28:45;96811.34;;;21.39;71.25
31357;BME280;60001;48.404;11.738;2023-08-21T04:30:18;96808.06;;;21.42;71.16
31357;BME280;60001;48.404;11.738;2023-08-21T04:31:48;96804.75;;;21.45;71.16
31357;BME280;60001;48.404;11.738;2023-08-21T04:33:20;96804.75;;;21.45;71.11
31357;BME280;60001;48.404;11.738;2023-08-21T04:34:51;96807.25;;;21.42;71.29
31357;BME280;60001;48.404;11.738;2023-08-21T04:36:23;96811.66;;;21.38;71.35
31357;BME280;60001;48.404;11.738;2023-08-21T04:37:55;96818.63;;;21.39;71.57
31357;BME280;60001;48.404;11.738;2023-08-21T04:39:26;96806.66;;;21.45;71.24
31357;BME280;60001;48.404;11.738;2023-08-21T04:41:06;96804.63;;;21.50;71.31
31357;BME280;60001;48.404;11.738;2023-08-21T04:42:38;96805.75;;;21.58;70.88
31357;BME280;60001;48.404;11.738;2023-08-21T04:44:10;96814.28;;;21.60;70.49
31357;BME280;60001;48.404;11.738;2023-08-21T04:45:47;96806.06;;;21.56;70.72
31357;BME280;60001;48.404;11.738;2023-08-21T04:47:20;96811.13;;;21.58;70.53
31357;BME280;60001;48.404;11.738;2023-08-21T04:48:51;96816.31;;;21.54;70.17
31357;BME280;60001;48.404;11.738;2023-08-21T04:50:23;96816.03;;;21.56;70.53
31357;BME280;60001;48.404;11.738;2023-08-21T04:51:55;96801.69;;;21.69;70.02
31357;BME280;60001;48.404;11.738;2023-08-21T04:53:26;96821.78;;;21.72;70.94
31357;BME280;60001;48.404;11.738;2023-08-21T04:54:57;96824.13;;;21.65;71.11
31357;BME280;60001;48.404;11.738;2023-08-21T04:56:29;96819.63;;;21.51;71.74
31357;BME280;60001;48.404;11.738;2023-08-21T04:58:01;96816.13;;;21.42;72.91
31357;BME280;60001;48.404;11.738;2023-08-21T04:59:35;96811.03;;;21.41;73.47
31357;BME280;60001;48.404;11.738;2023-08-21T05:01:06;96818.94;;;21.37;72.77
31357;BME280;60001;48.404;11.738;2023-08-21T05:02:38;96817.63;;;21.34;72.93
31357;BME280;60001;48.404;11.738;2023-08-21T05:04:09;96820.03;;;21.36;73.31
31357;BME280;60001;48.404;11.738;2023-08-21T05:05:40;96812.03;;;21.22;73.99
31357;BME280;60001;48.404;11.738;2023-08-21T05:07:11;96823.56;;;21.23;74.74
31357;BME280;60001;48.404;11.738;2023-08-21T05:08:43;96830.91;;;21.31;74.67
31357;BME280;60001;48.404;11.738;2023-08-21T05:10:15;96827.78;;;21.38;74.38
31357;BME280;60001;48.404;11.738;2023-08-21T05:11:46;96833.94;;;21.38;74.25
31357;BME280;60001;48.404;11.738;2023-08-21T05:13:19;96827.66;;;21.43;74.04
31357;BME280;60001;48.404;11.738;2023-08-21T05:14:50;96822.28;;;21.43;72.84
31357;BME280;60001;48.404;11.738;2023-08-21T05:16:22;96822.78;;;21.45;72.84
31357;BME280;60001;48.404;11.738;2023-08-21T05:17:53;96822.44;;;21.46;72.63
31357;BME280;60001;48.404;11.738;2023-08-21T05:19:24;96833.22;;;21.55;72.52
31357;BME280;60001;48.404;11.738;2023-08-21T05:20:56;96831.41;;;21.64;72.16
31357;BME280;60001;48.404;11.738;2023-08-21T05:22:27;96830.59;;;21.64;71.79
31357;BME280;60001;48.404;11.738;2023-08-21T05:23:59;96829.50;;;21.65;71.75
31357;BME280;60001;48.404;11.738;2023-08-21T05:25:31;96833.16;;;21.69;71.41
31357;BME280;60001;48.404;11.738;2023-08-21T05:27:03;96834.59;;;21.75;71.46
31357;BME280;60001;48.404;11.738;2023-08-21T05:28:36;96833.00;;;21.74;70.97
31357;BME280;60001;48.404;11.738;2023-08-21T05:30:08;96832.84;;;21.70;71.58
31357;BME280;60001;48.404;11.738;2023-08-21T05:31:41;96828.91;;;21.76;71.34
31357;BME280;60001;48.404;11.738;2023-08-21T05:33:12;96825.19;;;21.95;70.66
31357;BME280;60001;48.404;11.738;2023-08-21T05:34:43;96824.41;;;22.03;70.78
31357;BME280;60001;48.404;11.738;2023-08-21T05:36:15;96824.41;;;22.03;70.70
31357;BME280;60001;48.404;11.738;2023-08-21T05:37:46;96832.16;;;22.04;71.29
31357;BME280;60001;48.404;11.738;2023-08-21T05:39:17;96832.66;;;22.06;71.06
31357;BME280;60001;48.404;11.738;2023-08-21T05:40:49;96830.94;;;22.10;71.04
31357;BME280;60001;48.404;11.738;2023-08-21T05:42:21;96838.53;;;22.08;70.93
31357;BME280;60001;48.404;11.738;2023-08-21T05:43:53;96834.13;;;22.12;70.78
31357;BME280;60001;48.404;11.738;2023-08-21T05:45:25;96827.78;;;22.17;70.85
31357;BME280;60001;48.404;11.738;2023-08-21T05:46:56;96840.00;;;22.23;70.53
31357;BME280;60001;48.404;11.738;2023-08-21T05:48:28;96835.41;;;22.24;70.79
31357;BME280;60001;48.404;11.738;2023-08-21T05:49:58;96834.63;;;22.23;70.46
31357;BME280;60001;48.404;11.738;2023-08-21T05:51:31;96837.00;;;22.25;70.01
31357;BME280;60001;48.404;11.738;2023-08-21T05:53:02;96839.34;;;22.17;70.58
31357;BME280;60001;48.404;11.738;2023-08-21T05:54:34;96840.31;;;22.22;70.80
31357;BME280;60001;48.404;11.738;2023-08-21T05:56:04;96836.25;;;21.93;72.24
31357;BME280;60001;48.404;11.738;2023-08-21T05:57:36;96842.91;;;21.96;72.35
31357;BME280;60001;48.404;11.738;2023-08-21T05:59:11;96838.88;;;22.15;71.84
31357;BME280;60001;48.404;11.738;2023-08-21T06:00:43;96848.19;;;22.18;71.44
31357;BME280;60001;48.404;11.738;2023-08-21T06:02:14;96845.69;;;22.22;71.38
31357;BME280;60001;48.404;11.738;2023-08-21T06:03:46;96851.28;;;22.42;70.18
31357;BME280;60001;48.404;11.738;2023-08-21T06:05:17;96855.41;;;22.49;70.02
31357;BME280;60001;48.404;11.738;2023-08-21T06:06:49;96852.91;;;22.61;69.95
31357;BME280;60001;48.404;11.738;2023-08-21T06:08:20;96853.50;;;22.58;69.68
31357;BME280;60001;48.404;11.738;2023-08-21T06:09:52;96852.66;;;22.23;71.53
31357;BME280;60001;48.404;11.738;2023-08-21T06:11:23;96853.97;;;22.42;70.56
31357;BME280;60001;48.404;11.738;2023-08-21T06:12:55;96854.75;;;22.43;71.49
31357;BME280;60001;48.404;11.738;2023-08-21T06:14:27;96857.00;;;22.58;70.76
31357;BME280;60001;48.404;11.738;2023-08-21T06:16:00;96859.06;;;22.70;70.24
31357;BME280;60001;48.404;11.738;2023-08-21T06:17:31;96857.66;;;22.81;69.64
31357;BME280;60001;48.404;11.738;2023-08-21T06:19:03;96859.25;;;23.00;69.03
31357;BME280;60001;48.404;11.738;2023-08-21T06:20:34;96861.75;;;23.22;68.33
31357;BME280;60001;48.404;11.738;2023-08-21T06:22:07;96864.75;;;23.46;67.73
31357;BME280;60001;48.404;11.738;2023-08-21T06:23:37;96862.81;;;23.56;66.92
31357;BME280;60001;48.404;11.738;2023-08-21T06:25:09;96865.00;;;23.79;66.60
31357;BME280;60001;48.404;11.738;2023-08-21T06:26:40;96868.69;;;24.04;65.77
31357;BME280;60001;48.404;11.738;2023-08-21T06:28:12;96861.03;;;24.15;65.24
31357;BME280;60001;48.404;11.738;2023-08-21T06:29:44;96862.34;;;24.39;64.36
31357;BME280;60001;48.404;11.738;2023-08-21T06:31:16;96855.19;;;24.43;63.78
31357;BME280;60001;48.404;11.738;2023-08-21T06:32:47;96860.19;;;24.53;63.52
31357;BME280;60001;48.404;11.738;2023-08-21T06:34:18;96853.69;;;24.75;62.96
31357;BME280;60001;48.404;11.738;2023-08-21T06:35:50;96853.66;;;24.96;62.07
31357;BME280;60001;48.404;11.738;2023-08-21T06:37:20;96849.28;;;25.12;61.64
31357;BME280;60001;48.404;11.738;2023-08-21T06:38:52;96851.03;;;25.29;61.33
31357;BME280;60001;48.404;11.738;2023-08-21T06:40:23;96844.88;;;25.40;61.47
31357;BME280;60001;48.404;11.738;2023-08-21T06:41:55;96857.06;;;25.59;61.21
31357;BME280;60001;48.404;11.738;2023-08-21T06:43:25;96855.34;;;25.75;60.30
31357;BME280;60001;48.404;11.738;2023-08-21T06:44:58;96855.19;;;25.72;60.09
31357;BME280;60001;48.404;11.738;2023-08-21T06:46:30;96855.13;;;25.92;59.48
31357;BME280;60001;48.404;11.738;2023-08-21T06:48:01;96854.22;;;26.01;58.81
31357;BME280;60001;48.404;11.738;2023-08-21T06:49:33;96856.25;;;26.04;58.30
31357;BME280;60001;48.404;11.738;2023-08-21T06:51:04;96863.34;;;26.20;58.06
31357;BME280;60001;48.404;11.738;2023-08-21T06:52:36;96857.28;;;26.36;57.92
31357;BME280;60001;48.404;11.738;2023-08-21T06:54:06;96861.56;;;26.37;57.47
31357;BME280;60001;48.404;11.738;2023-08-21T06:55:38;96857.84;;;26.41;57.63
31357;BME280;60001;48.404;11.738;2023-08-21T06:57:09;96859.88;;;26.57;56.76
31357;BME280;60001;48.404;11.738;2023-08-21T06:58:40;96859.19;;;26.60;56.61
31357;BME280;60001;48.404;11.738;2023-08-21T07:00:13;96854.34;;;26.53;56.63
31357;BME280;60001;48.404;11.738;2023-08-21T07:01:45;96857.03;;;26.53;57.36
31357;BME280;60001;48.404;11.738;2023-08-21T07:03:16;96842.72;;;26.40;58.02
31357;BME280;60001;48.404;11.738;2023-08-21T07:04:48;96872.16;;;26.42;58.28
31357;BME280;60001;48.404;11.738;2023-08-21T07:06:18;96864.59;;;26.47;58.10
31357;BME280;60001;48.404;11.738;2023-08-21T07:07:50;96859.88;;;26.44;58.03
31357;BME280;60001;48.404;11.738;2023-08-21T07:09:21;96867.53;;;26.42;58.22
31357;BME280;60001;48.404;11.738;2023-08-21T07:10:53;96862.22;;;26.58;57.79
31357;BME280;60001;48.404;11.738;2023-08-21T07:12:25;96862.59;;;26.57;57.92
31357;BME280;60001;48.404;11.738;2023-08-21T07:13:56;96864.16;;;26.58;57.59
31357;BME280;60001;48.404;11.738;2023-08-21T07:15:30;96865.97;;;26.41;57.57
31357;BME280;60001;48.404;11.738;2023-08-21T07:17:00;96864.13;;;26.33;57.25
31357;BME280;60001;48.404;11.738;2023-08-21T07:18:33;96866.75;;;26.30;57.74
31357;BME280;60001;48.404;11.738;2023-08-21T07:20:05;96864.47;;;26.19;56.99
31357;BME280;60001;48.404;11.738;2023-08-21T07:21:37;96867.75;;;26.25;57.38
31357;BME280;60001;48.404;11.738;2023-08-21T07:23:09;96870.25;;;26.30;57.81
31357;BME280;60001;48.404;11.738;2023-08-21T07:24:39;96873.66;;;26.39;57.73
31357;BME280;60001;48.404;11.738;2023-08-21T07:26:11;96872.84;;;26.51;57.94
31357;BME280;60001;48.404;11.738;2023-08-21T07:27:42;96869.44;;;26.54;58.20
31357;BME280;60001;48.404;11.738;2023-08-21T07:29:14;96872.03;;;26.63;57.68
31357;BME280;60001;48.404;11.738;2023-08-21T07:30:46;96867.94;;;26.69;56.10
31357;BME280;60001;48.404;11.738;2023-08-21T07:32:19;96870.88;;;26.76;56.27
31357;BME280;60001;48.404;11.738;2023-08-21T07:33:50;96868.63;;;26.78;56.70
31357;BME280;60001;48.404;11.738;2023-08-21T07:35:21;96867.22;;;26.84;56.72
31357;BME280;60001;48.404;11.738;2023-08-21T07:36:53;96868.56;;;26.90;55.75
31357;BME280;60001;48.404;11.738;2023-08-21T07:38:24;96873.31;;;27.06;55.13
31357;BME280;60001;48.404;11.738;2023-08-21T07:39:56;96869.81;;;26.93;54.96
31357;BME280;60001;48.404;11.738;2023-08-21T07:41:28;96872.81;;;27.03;54.86
31357;BME280;60001;48.404;11.738;2023-08-21T07:42:59;96873.94;;;27.15;54.73
31357;BME280;60001;48.404;11.738;2023-08-21T07:44:30;96865.78;;;27.27;54.18
31357;BME280;60001;48.404;11.738;2023-08-21T07:46:04;96868.75;;;27.38;54.60
31357;BME280;60001;48.404;11.738;2023-08-21T07:47:35;96863.94;;;27.31;54.82
31357;BME280;60001;48.404;11.738;2023-08-21T07:49:07;96868.50;;;27.43;54.83
31357;BME280;60001;48.404;11.738;2023-08-21T07:50:38;96867.31;;;27.56;54.24
31357;BME280;60001;48.404;11.738;2023-08-21T07:52:09;96867.94;;;27.65;54.37
31357;BME280;60001;48.404;11.738;2023-08-21T07:53:41;96866.47;;;27.68;53.94
31357;BME280;60001;48.404;11.738;2023-08-21T07:55:12;96870.97;;;27.76;53.58
31357;BME280;60001;48.404;11.738;2023-08-21T07:56:44;96861.03;;;27.68;53.28
31357;BME280;60001;48.404;11.738;2023-08-21T07:58:15;96871.56;;;27.85;53.82
31357;BME280;60001;48.404;11.738;2023-08-21T07:59:47;96867.03;;;27.89;53.71
31357;BME280;60001;48.404;11.738;2023-08-21T08:01:19;96874.47;;;27.92;54.38